Time;durP1;ratioP1;P1;durP2;ratioP2;P2;SDS_P1;SDS_P2;PMS_P1;PMS_P2;Temp;Humidity;BMP_temperature;BMP_pressure;BME280_temperature;BME280_humidity;BME280_pressure;Samples;Min_cycle;Max_cycle;Signal;HPM_P1;HPM_P2
2021/11/30 00:02:51;;;;;;;11.13;4.82;;;4.40;92.10;;;;;;6205040;28;20093;-80
2021/11/30 00:05:54;;;;;;;14.85;5.53;;;4.40;92.10;;;;;;6201272;28;20125;-80
2021/11/30 00:09:09;;;;;;;11.82;5.53;;;4.40;92.10;;;;;;6198247;28;20052;-80
2021/11/30 00:12:14;;;;;;;8.43;4.60;;;4.50;91.90;;;;;;6204313;28;20050;-80
2021/11/30 00:15:15;;;;;;;13.25;6.18;;;4.50;91.60;;;;;;6203975;28;20061;-80
2021/11/30 00:18:17;;;;;;;9.43;5.55;;;4.50;91.60;;;;;;6203766;28;20145;-80
2021/11/30 00:21:20;;;;;;;10.90;4.90;;;4.50;91.60;;;;;;6203757;28;20526;-80
2021/11/30 00:24:23;;;;;;;11.75;4.90;;;4.60;91.30;;;;;;6202560;28;20120;-80
2021/11/30 00:27:26;;;;;;;8.93;4.63;;;4.60;91.00;;;;;;6202063;28;20053;-80
2021/11/30 00:30:28;;;;;;;16.63;5.53;;;4.60;91.00;;;;;;6205668;28;20058;-80
2021/11/30 00:33:29;;;;;;;7.53;4.78;;;4.60;91.00;;;;;;6204733;28;20050;-80
2021/11/30 00:36:33;;;;;;;14.52;4.97;;;4.70;90.70;;;;;;6204656;28;20113;-80
2021/11/30 00:39:34;;;;;;;8.50;5.13;;;4.70;90.70;;;;;;6203996;28;20049;-80
2021/11/30 00:42:37;;;;;;;10.15;5.13;;;4.70;91.50;;;;;;6205096;28;20050;-80
2021/11/30 00:45:47;;;;;;;10.35;4.80;;;4.70;91.40;;;;;;6203036;28;20471;-80
2021/11/30 00:48:49;;;;;;;6.03;3.65;;;4.70;91.70;;;;;;6204521;28;20053;-80
2021/11/30 00:51:53;;;;;;;5.82;3.90;;;4.70;91.50;;;;;;6205537;28;20129;-80
2021/11/30 00:54:55;;;;;;;8.27;5.10;;;4.70;91.60;;;;;;6204466;28;20520;-79
2021/11/30 00:57:57;;;;;;;10.38;5.93;;;4.70;91.40;;;;;;6203484;28;20070;-80
2021/11/30 01:00:59;;;;;;;11.68;3.97;;;4.70;91.60;;;;;;6204075;28;20046;-80
2021/11/30 01:04:01;;;;;;;7.53;3.95;;;4.70;91.30;;;;;;6204364;28;20418;-80
2021/11/30 01:07:04;;;;;;;24.17;4.95;;;4.70;91.30;;;;;;6203576;28;20133;-80
2021/11/30 01:10:10;;;;;;;7.47;4.32;;;4.70;91.30;;;;;;6201654;28;20046;-80
2021/11/30 01:13:12;;;;;;;8.07;4.05;;;4.70;91.20;;;;;;6202831;28;20062;-80
2021/11/30 01:16:14;;;;;;;10.27;3.88;;;4.70;90.80;;;;;;6204217;28;20050;-80
2021/11/30 01:19:16;;;;;;;8.82;3.72;;;4.70;91.10;;;;;;6203265;28;20056;-80
2021/11/30 01:22:19;;;;;;;7.80;4.15;;;4.70;90.90;;;;;;6203914;28;20050;-81
2021/11/30 01:25:21;;;;;;;5.38;3.40;;;4.70;91.00;;;;;;6202413;28;20072;-80
2021/11/30 01:28:23;;;;;;;14.07;3.65;;;4.70;90.70;;;;;;6202745;28;20066;-80
2021/11/30 01:31:25;;;;;;;8.23;3.58;;;4.80;91.00;;;;;;6202654;28;20043;-80
2021/11/30 01:34:27;;;;;;;9.93;3.38;;;4.80;90.90;;;;;;6203016;28;20058;-79
2021/11/30 01:37:31;;;;;;;7.18;3.28;;;4.80;90.90;;;;;;6202892;28;20066;-80
2021/11/30 01:40:33;;;;;;;4.72;2.78;;;4.80;90.50;;;;;;6185520;28;20046;-80
2021/11/30 01:43:40;;;;;;;9.30;3.55;;;4.80;90.70;;;;;;6179169;28;20122;-80
2021/11/30 01:46:54;;;;;;;7.95;2.95;;;4.80;90.40;;;;;;6197632;28;20078;-80
2021/11/30 01:49:57;;;;;;;4.88;2.45;;;4.80;90.30;;;;;;6204748;28;20038;-80
2021/11/30 01:53:00;;;;;;;7.38;2.83;;;4.90;90.10;;;;;;6208811;28;20221;-80
2021/11/30 01:56:02;;;;;;;5.00;2.78;;;4.90;89.70;;;;;;6184119;28;20057;-80
2021/11/30 01:59:04;;;;;;;8.57;3.05;;;4.80;89.30;;;;;;6179912;28;20074;-79
2021/11/30 02:02:06;;;;;;;4.35;2.90;;;4.80;88.70;;;;;;6180072;28;20054;-80
2021/11/30 02:05:08;;;;;;;7.90;2.90;;;4.80;89.30;;;;;;6179412;28;20115;-80
2021/11/30 02:08:11;;;;;;;9.57;3.03;;;4.80;88.80;;;;;;6183437;28;20121;-79
2021/11/30 02:11:13;;;;;;;6.72;3.38;;;4.90;88.80;;;;;;6201676;28;20133;-78
2021/11/30 02:14:15;;;;;;;7.70;2.95;;;4.90;89.00;;;;;;6198503;28;20137;-77
2021/11/30 02:17:17;;;;;;;10.50;3.58;;;4.90;88.50;;;;;;6196487;28;20094;-77
2021/11/30 02:20:20;;;;;;;8.70;3.38;;;5.00;88.00;;;;;;6197082;28;20185;-77
2021/11/30 02:23:36;;;;;;;7.75;3.67;;;4.90;87.60;;;;;;6196529;28;20199;-77
2021/11/30 02:26:40;;;;;;;2.67;2.10;;;5.00;88.10;;;;;;6197874;28;20077;-80
2021/11/30 02:29:42;;;;;;;9.50;2.88;;;5.00;88.10;;;;;;6203391;28;20110;-80
2021/11/30 02:32:45;;;;;;;11.35;5.55;;;5.00;88.50;;;;;;6203015;28;20046;-79
2021/11/30 02:35:48;;;;;;;6.75;3.00;;;5.00;87.20;;;;;;6203951;28;20053;-80
2021/11/30 02:38:50;;;;;;;9.85;3.42;;;5.00;87.10;;;;;;6203887;28;20042;-80
2021/11/30 02:41:53;;;;;;;5.82;2.88;;;5.00;86.90;;;;;;6202283;28;20042;-80
2021/11/30 02:44:55;;;;;;;5.30;3.78;;;5.00;86.10;;;;;;6202917;28;20073;-80
2021/11/30 02:47:57;;;;;;;6.45;3.08;;;4.90;85.70;;;;;;6202579;28;20125;-80
2021/11/30 02:51:04;;;;;;;7.55;3.58;;;5.00;86.20;;;;;;6203263;28;20604;-80
2021/11/30 02:54:07;;;;;;;8.97;2.27;;;5.00;85.90;;;;;;6203923;28;20491;-80
2021/11/30 02:57:11;;;;;;;4.80;2.13;;;5.00;86.10;;;;;;6203152;28;20062;-80
2021/11/30 03:00:13;;;;;;;4.97;2.50;;;5.10;86.40;;;;;;6205134;28;20193;-80
2021/11/30 03:03:15;;;;;;;8.85;2.40;;;5.10;87.20;;;;;;6207078;28;20050;-80
2021/11/30 03:06:18;;;;;;;7.15;2.58;;;5.10;86.40;;;;;;6207921;28;20054;-80
2021/11/30 03:09:20;;;;;;;7.38;2.05;;;5.10;86.50;;;;;;6207210;28;20097;-80
2021/11/30 03:12:23;;;;;;;7.72;2.97;;;5.10;86.70;;;;;;6207515;28;20042;-80
2021/11/30 03:15:26;;;;;;;4.43;2.17;;;5.10;86.50;;;;;;6207157;28;20117;-80
2021/11/30 03:18:29;;;;;;;7.65;2.10;;;5.00;86.10;;;;;;6206945;28;20193;-79
2021/11/30 03:21:33;;;;;;;9.70;3.15;;;5.00;85.80;;;;;;6207281;28;20137;-80
2021/11/30 03:24:35;;;;;;;2.88;1.80;;;4.90;85.70;;;;;;6206440;28;20126;-80
2021/11/30 03:27:37;;;;;;;8.38;2.13;;;4.90;85.90;;;;;;6206603;28;20122;-80
2021/11/30 03:30:42;;;;;;;4.85;1.95;;;4.90;85.90;;;;;;6205685;28;20052;-79
2021/11/30 03:34:02;;;;;;;5.10;2.00;;;4.90;85.60;;;;;;6206206;28;20100;-80
2021/11/30 03:37:07;;;;;;;6.72;2.85;;;4.80;85.80;;;;;;6205931;28;20061;-80
2021/11/30 03:40:11;;;;;;;8.25;2.35;;;4.90;85.90;;;;;;6205831;28;20047;-80
2021/11/30 03:43:13;;;;;;;2.78;1.33;;;4.80;85.50;;;;;;6206213;28;20050;-80
2021/11/30 03:46:15;;;;;;;4.80;1.55;;;4.80;85.10;;;;;;6206100;28;20092;-80
2021/11/30 03:49:18;;;;;;;12.13;1.70;;;4.70;85.50;;;;;;6206666;28;20047;-80
2021/11/30 03:52:22;;;;;;;10.50;2.20;;;4.80;85.40;;;;;;6194646;28;20050;-80
2021/11/30 03:55:23;;;;;;;9.77;1.95;;;4.70;84.90;;;;;;6193674;28;20129;-80
2021/11/30 03:58:25;;;;;;;1.63;1.35;;;4.70;85.00;;;;;;6207894;28;20110;-80
2021/11/30 04:01:27;;;;;;;3.20;1.85;;;4.70;85.30;;;;;;6205444;28;20125;-80
2021/11/30 04:04:33;;;;;;;4.57;2.50;;;4.70;85.40;;;;;;6205152;28;20046;-80
2021/11/30 04:07:36;;;;;;;14.93;2.90;;;4.70;85.30;;;;;;6205699;28;20173;-80
2021/11/30 04:10:38;;;;;;;6.28;3.20;;;4.70;84.70;;;;;;6203437;28;20416;-79
2021/11/30 04:13:40;;;;;;;4.05;1.38;;;4.70;84.60;;;;;;6198654;28;20550;-80
2021/11/30 04:16:43;;;;;;;2.70;1.98;;;4.70;84.60;;;;;;6205639;28;20145;-79
2021/11/30 04:19:46;;;;;;;9.73;3.42;;;4.70;84.20;;;;;;6206044;28;20069;-80
2021/11/30 04:22:49;;;;;;;4.25;1.40;;;4.70;84.20;;;;;;6207066;28;20057;-80
2021/11/30 04:25:51;;;;;;;11.55;6.68;;;4.70;84.00;;;;;;6206266;28;20133;-80
2021/11/30 04:28:53;;;;;;;8.82;2.03;;;4.70;83.90;;;;;;6206231;28;20133;-80
2021/11/30 04:31:56;;;;;;;5.63;1.75;;;4.70;83.70;;;;;;6206476;28;20050;-80
2021/11/30 04:34:57;;;;;;;4.47;1.33;;;4.60;83.50;;;;;;6205941;28;20058;-80
2021/11/30 04:38:00;;;;;;;16.90;6.57;;;4.60;83.60;;;;;;6206387;28;20120;-80
2021/11/30 04:41:03;;;;;;;9.63;3.38;;;4.70;83.30;;;;;;6204342;28;20475;-80
2021/11/30 04:44:06;;;;;;;7.00;3.15;;;4.70;83.50;;;;;;6204424;28;20074;-79
2021/11/30 04:47:10;;;;;;;24.73;8.93;;;4.70;83.20;;;;;;6204212;28;20056;-80
2021/11/30 04:50:17;;;;;;;5.93;3.05;;;4.70;83.50;;;;;;6205423;28;20440;-80
2021/11/30 04:53:21;;;;;;;4.20;1.63;;;4.80;83.70;;;;;;6205707;28;20566;-80
2021/11/30 04:56:23;;;;;;;5.07;1.85;;;4.80;83.20;;;;;;6205789;28;20061;-80
2021/11/30 04:59:25;;;;;;;9.25;2.70;;;4.80;83.50;;;;;;6205853;28;20047;-80
2021/11/30 05:02:26;;;;;;;3.97;1.75;;;4.80;83.90;;;;;;6206206;28;20133;-79
2021/11/30 05:05:28;;;;;;;7.35;2.15;;;4.70;84.00;;;;;;6205777;28;20050;-80
2021/11/30 05:08:31;;;;;;;4.65;1.38;;;4.70;83.70;;;;;;6206358;28;20130;-80
2021/11/30 05:11:33;;;;;;;4.88;2.38;;;4.70;85.00;;;;;;6211151;28;20110;-79
2021/11/30 05:14:35;;;;;;;5.47;1.75;;;4.70;84.60;;;;;;6184193;28;20047;-80
2021/11/30 05:17:38;;;;;;;2.80;1.52;;;4.60;85.40;;;;;;6177790;28;20252;-80
2021/11/30 05:20:40;;;;;;;2.60;1.98;;;4.60;86.00;;;;;;6178100;28;20047;-80
2021/11/30 05:23:43;;;;;;;11.85;2.95;;;4.40;87.40;;;;;;6178707;28;20047;-80
2021/11/30 05:26:44;;;;;;;6.55;2.20;;;4.40;87.90;;;;;;6178861;28;20201;-80
2021/11/30 05:29:46;;;;;;;5.53;2.20;;;4.40;88.60;;;;;;6178936;28;20122;-80
2021/11/30 05:32:49;;;;;;;5.68;2.08;;;4.30;90.00;;;;;;6178838;28;20193;-79
2021/11/30 05:35:51;;;;;;;9.32;2.10;;;4.20;89.90;;;;;;6178373;28;20047;-80
2021/11/30 05:38:54;;;;;;;6.85;2.50;;;4.10;90.30;;;;;;6179335;28;20082;-79
2021/11/30 05:41:56;;;;;;;3.83;2.40;;;4.00;90.80;;;;;;6179379;28;20114;-79
2021/11/30 05:44:58;;;;;;;2.92;2.08;;;3.90;90.90;;;;;;6180169;28;20225;-79
2021/11/30 05:48:00;;;;;;;8.23;2.35;;;3.90;91.00;;;;;;6181038;28;20139;-79
2021/11/30 05:51:02;;;;;;;8.27;2.22;;;3.80;91.20;;;;;;6180421;28;20138;-80
2021/11/30 05:54:05;;;;;;;5.00;2.70;;;3.70;91.60;;;;;;6183187;28;20043;-80
2021/11/30 05:57:11;;;;;;;8.27;2.70;;;3.60;91.90;;;;;;6179611;28;20542;-80
2021/11/30 06:00:16;;;;;;;6.95;3.33;;;3.60;92.00;;;;;;6181110;28;20122;-80
2021/11/30 06:03:28;;;;;;;9.85;3.38;;;3.50;92.10;;;;;;6183946;28;20131;-80
2021/11/30 06:06:31;;;;;;;4.80;2.90;;;3.50;92.10;;;;;;6186076;28;20523;-80
2021/11/30 06:09:35;;;;;;;9.27;3.75;;;3.40;92.30;;;;;;6185371;28;20091;-80
2021/11/30 06:12:37;;;;;;;3.53;2.30;;;3.40;92.30;;;;;;6190329;28;20077;-79
2021/11/30 06:15:39;;;;;;;3.85;3.05;;;3.30;92.40;;;;;;6209976;28;20042;-79
2021/11/30 06:18:41;;;;;;;4.22;2.80;;;3.30;92.70;;;;;;6211662;28;20137;-79
2021/11/30 06:21:45;;;;;;;12.40;3.13;;;3.20;92.70;;;;;;6210659;28;20213;-79
2021/11/30 06:24:48;;;;;;;6.95;2.80;;;3.30;92.80;;;;;;6206159;28;20047;-79
2021/11/30 06:27:49;;;;;;;7.97;3.13;;;3.20;92.70;;;;;;6206210;28;20053;-79
2021/11/30 06:30:52;;;;;;;6.97;3.22;;;3.30;93.10;;;;;;6209158;28;20057;-80
2021/11/30 06:33:53;;;;;;;8.55;3.92;;;3.20;93.00;;;;;;6207617;28;20058;-79
2021/11/30 06:36:55;;;;;;;7.47;2.25;;;3.20;92.80;;;;;;6211132;28;20066;-79
2021/11/30 06:39:58;;;;;;;7.55;5.00;;;3.30;93.00;;;;;;6210837;28;20042;-79
2021/11/30 06:43:00;;;;;;;6.53;3.65;;;3.10;92.80;;;;;;6209241;28;20133;-80
2021/11/30 06:46:02;;;;;;;6.32;3.70;;;3.10;93.40;;;;;;6208036;28;20054;-80
2021/11/30 06:49:04;;;;;;;7.78;2.95;;;3.10;93.70;;;;;;6191487;28;20053;-81
2021/11/30 06:52:06;;;;;;;6.03;3.08;;;3.10;93.70;;;;;;6208146;28;20093;-80
2021/11/30 06:55:11;;;;;;;5.80;3.25;;;3.10;93.80;;;;;;6195915;28;20109;-79
2021/11/30 06:58:13;;;;;;;13.70;3.85;;;3.10;93.70;;;;;;6207846;28;20042;-79
2021/11/30 07:01:14;;;;;;;15.02;5.20;;;3.10;93.90;;;;;;6208256;28;20129;-79
2021/11/30 07:04:17;;;;;;;6.05;4.40;;;3.10;93.70;;;;;;6209060;28;20041;-79
2021/11/30 07:07:26;;;;;;;12.18;3.28;;;3.00;93.90;;;;;;6209763;28;20420;-80
2021/11/30 07:10:38;;;;;;;6.57;2.80;;;3.00;94.10;;;;;;6208476;28;20073;-80
2021/11/30 07:13:40;;;;;;;5.65;2.03;;;3.00;94.40;;;;;;6205659;28;20050;-81
2021/11/30 07:16:41;;;;;;;5.57;3.22;;;3.00;94.20;;;;;;6208568;28;20129;-81
2021/11/30 07:19:43;;;;;;;6.28;3.28;;;3.10;94.30;;;;;;6205790;28;20066;-81
2021/11/30 07:22:45;;;;;;;4.88;2.80;;;3.00;94.20;;;;;;6196157;28;20129;-82
2021/11/30 07:25:52;;;;;;;6.07;3.65;;;3.00;94.30;;;;;;6204645;28;20046;-82
2021/11/30 07:28:54;;;;;;;5.90;3.20;;;3.00;94.30;;;;;;6206365;28;20125;-81
2021/11/30 07:31:57;;;;;;;8.50;3.10;;;3.10;94.40;;;;;;6205321;28;20174;-81
2021/11/30 07:34:59;;;;;;;3.05;2.10;;;3.10;94.30;;;;;;6205584;28;20064;-81
2021/11/30 07:38:00;;;;;;;13.02;3.05;;;3.10;94.10;;;;;;6204764;28;20057;-82
2021/11/30 07:41:04;;;;;;;8.82;3.55;;;3.10;94.20;;;;;;6206855;28;20133;-81
2021/11/30 07:44:07;;;;;;;7.47;2.25;;;3.10;94.10;;;;;;6207232;28;20050;-82
2021/11/30 07:47:09;;;;;;;6.60;2.60;;;3.20;94.40;;;;;;6207319;28;20090;-81
2021/11/30 07:50:11;;;;;;;6.75;3.20;;;3.20;94.00;;;;;;6205421;28;20054;-81
2021/11/30 07:53:13;;;;;;;4.82;2.00;;;3.30;94.00;;;;;;6191015;28;20133;-82
2021/11/30 07:56:17;;;;;;;5.40;2.67;;;3.20;93.70;;;;;;6204479;28;20492;-83
2021/11/30 07:59:19;;;;;;;6.30;2.95;;;3.10;93.90;;;;;;6203960;28;20102;-81
2021/11/30 08:02:21;;;;;;;6.07;2.38;;;3.10;94.20;;;;;;6207478;28;20058;-82
2021/11/30 08:05:23;;;;;;;5.35;2.80;;;3.00;94.10;;;;;;6207910;28;20108;-81
2021/11/30 08:08:25;;;;;;;5.00;2.45;;;3.10;94.50;;;;;;6207409;28;20099;-82
2021/11/30 08:11:28;;;;;;;3.75;2.25;;;3.10;94.30;;;;;;6205409;28;20049;-81
2021/11/30 08:14:30;;;;;;;6.63;3.08;;;3.10;94.40;;;;;;6203883;28;20133;-82
2021/11/30 08:17:31;;;;;;;5.18;3.22;;;3.10;94.20;;;;;;6203188;28;20548;-81
2021/11/30 08:20:34;;;;;;;6.93;2.97;;;3.00;94.40;;;;;;6199370;28;20039;-80
2021/11/30 08:23:36;;;;;;;6.72;3.17;;;3.00;94.40;;;;;;6188943;28;20042;-80
2021/11/30 08:26:40;;;;;;;5.13;2.83;;;3.00;94.50;;;;;;6180918;28;20153;-82
2021/11/30 08:29:45;;;;;;;6.60;3.30;;;3.00;94.50;;;;;;6185206;28;20502;-81
2021/11/30 08:32:47;;;;;;;12.63;3.53;;;3.00;94.50;;;;;;6190151;28;20110;-81
2021/11/30 08:35:49;;;;;;;6.05;3.85;;;3.10;94.70;;;;;;6189574;28;20124;-81
2021/11/30 08:38:50;;;;;;;8.18;3.58;;;3.10;94.50;;;;;;6190972;28;20130;-80
2021/11/30 08:41:54;;;;;;;8.50;4.05;;;3.10;94.40;;;;;;6190235;28;20121;-79
2021/11/30 08:44:55;;;;;;;14.00;3.70;;;3.10;94.40;;;;;;6189201;28;20109;-79
2021/11/30 08:47:58;;;;;;;8.27;3.47;;;3.10;94.40;;;;;;6184349;28;20043;-82
2021/11/30 08:51:00;;;;;;;9.05;4.55;;;3.10;94.50;;;;;;6191926;28;20057;-83
2021/11/30 08:54:02;;;;;;;11.82;5.13;;;3.10;94.50;;;;;;6188846;28;20046;-80
2021/11/30 08:57:06;;;;;;;5.03;3.40;;;3.10;94.60;;;;;;6185017;28;20059;-80
2021/11/30 09:00:10;;;;;;;11.50;5.97;;;3.20;95.00;;;;;;6186025;28;20129;-80
2021/11/30 09:03:12;;;;;;;8.40;4.28;;;3.20;95.20;;;;;;6183904;28;20145;-80
2021/11/30 09:06:14;;;;;;;9.35;4.38;;;3.10;95.00;;;;;;6188671;28;20055;-80
2021/11/30 09:09:16;;;;;;;22.60;11.52;;;3.10;95.20;;;;;;6189785;28;20097;-80
2021/11/30 09:12:19;;;;;;;7.20;4.03;;;3.00;95.20;;;;;;6187348;28;20100;-80
2021/11/30 09:15:21;;;;;;;17.90;7.70;;;3.00;95.40;;;;;;6194343;28;20101;-81
2021/11/30 09:18:29;;;;;;;13.30;4.95;;;3.10;95.50;;;;;;6212118;28;20061;-82
2021/11/30 09:21:31;;;;;;;8.82;4.38;;;3.10;95.20;;;;;;6210203;28;20540;-79
2021/11/30 09:24:32;;;;;;;9.32;3.83;;;3.00;95.10;;;;;;6206536;28;20070;-81
2021/11/30 09:27:36;;;;;;;6.82;4.63;;;3.00;95.20;;;;;;6215473;28;20038;-81
2021/11/30 09:30:38;;;;;;;8.00;4.38;;;3.00;95.30;;;;;;6210720;28;20126;-82
2021/11/30 09:33:40;;;;;;;14.40;6.97;;;3.00;95.30;;;;;;6209949;28;20046;-79
2021/11/30 09:36:45;;;;;;;15.77;7.28;;;3.10;95.40;;;;;;6200767;28;20050;-79
2021/11/30 09:39:47;;;;;;;7.72;3.85;;;3.10;95.40;;;;;;6202311;28;20042;-80
2021/11/30 09:42:51;;;;;;;14.90;7.90;;;3.10;95.60;;;;;;6205145;28;20472;-80
2021/11/30 09:45:55;;;;;;;9.32;3.75;;;3.10;95.70;;;;;;6205037;28;20050;-80
2021/11/30 09:48:58;;;;;;;0.00;0.00;;;3.20;95.80;;;;;;6227415;23;20061;-79
2021/11/30 09:52:00;;;;;;;0.00;0.00;;;3.30;95.70;;;;;;6193296;28;20046;-79
2021/11/30 09:55:02;;;;;;;0.00;0.00;;;3.30;95.80;;;;;;6177719;28;20484;-80
2021/11/30 09:58:06;;;;;;;0.00;0.00;;;3.30;95.60;;;;;;6176839;28;20094;-79
2021/11/30 10:01:11;;;;;;;0.00;0.00;;;3.40;95.70;;;;;;6156933;28;20504;-78
2021/11/30 10:04:13;;;;;;;0.00;0.00;;;3.40;95.80;;;;;;6153224;28;20074;-81
2021/11/30 10:07:15;;;;;;;0.00;0.00;;;3.50;95.70;;;;;;6153594;28;20086;-81
2021/11/30 10:10:20;;;;;;;0.00;0.00;;;3.50;95.70;;;;;;6152860;28;20632;-78
2021/11/30 10:13:24;;;;;;;0.00;0.00;;;3.50;95.80;;;;;;6153113;28;20551;-79
2021/11/30 10:16:26;;;;;;;0.00;0.00;;;3.50;95.70;;;;;;6158040;28;20047;-79
2021/11/30 10:19:29;;;;;;;0.00;0.00;;;3.50;95.70;;;;;;6178904;28;20126;-79
2021/11/30 10:22:45;;;;;;;0.00;0.00;;;3.60;95.90;;;;;;6170660;28;20043;-79
2021/11/30 10:25:48;;;;;;;0.00;0.00;;;3.60;95.70;;;;;;6178598;28;20503;-80
2021/11/30 10:28:58;;;;;;;0.00;0.00;;;3.60;95.80;;;;;;6172537;28;20051;-79
2021/11/30 10:31:59;;;;;;;1.45;0.47;;;3.60;95.70;;;;;;6171979;28;20151;-80
2021/11/30 10:35:01;;;;;;;0.00;0.00;;;3.60;95.80;;;;;;6168069;28;20125;-79
2021/11/30 10:38:05;;;;;;;0.00;0.00;;;3.60;95.60;;;;;;6178043;28;20051;-80
2021/11/30 10:41:12;;;;;;;0.00;0.00;;;3.70;95.90;;;;;;6177075;28;20544;-79
2021/11/30 10:44:16;;;;;;;8.93;2.10;;;3.80;96.00;;;;;;6177355;28;20548;-80
2021/11/30 10:47:21;;;;;;;0.00;0.00;;;3.80;95.90;;;;;;6175182;28;20087;-79
2021/11/30 10:50:25;;;;;;;0.00;0.00;;;3.80;95.90;;;;;;6172575;28;20070;-80
2021/11/30 10:53:30;;;;;;;0.00;0.00;;;3.80;95.70;;;;;;6165595;28;20416;-80
2021/11/30 10:56:32;;;;;;;0.03;0.03;;;3.80;95.90;;;;;;6168636;28;20535;-79
2021/11/30 10:59:35;;;;;;;0.00;0.00;;;3.80;95.90;;;;;;6177559;28;20043;-80
2021/11/30 11:02:49;;;;;;;0.00;0.00;;;3.80;95.70;;;;;;6178998;28;20146;-80
2021/11/30 11:09:10;;;;;;;0.00;0.00;;;3.90;95.80;;;;;;6184013;28;20097;-81
2021/11/30 11:12:12;;;;;;;0.00;0.00;;;3.90;95.70;;;;;;6180405;28;20062;-82
2021/11/30 11:15:16;;;;;;;0.00;0.00;;;3.90;95.50;;;;;;6178441;28;20054;-81
2021/11/30 11:18:23;;;;;;;0.00;0.00;;;3.90;95.70;;;;;;6175384;28;20493;-83
2021/11/30 11:21:29;;;;;;;0.00;0.00;;;3.80;95.60;;;;;;6175566;28;20122;-79
2021/11/30 11:24:35;;;;;;;0.00;0.00;;;3.70;95.60;;;;;;6155587;28;20085;-79
2021/11/30 11:27:40;;;;;;;0.00;0.00;;;3.80;95.80;;;;;;6156905;28;20501;-79
2021/11/30 11:30:44;;;;;;;0.00;0.00;;;3.80;95.80;;;;;;6158475;28;20134;-79
2021/11/30 11:33:46;;;;;;;0.00;0.00;;;3.80;96.00;;;;;;6158877;28;20580;-80
2021/11/30 11:36:50;;;;;;;0.00;0.00;;;3.80;96.00;;;;;;6157408;28;20055;-79
2021/11/30 11:39:52;;;;;;;0.00;0.00;;;3.80;96.10;;;;;;6179566;28;20057;-80
2021/11/30 11:42:56;;;;;;;0.00;0.00;;;3.80;96.00;;;;;;6182264;28;20166;-80
2021/11/30 11:45:59;;;;;;;0.00;0.00;;;3.80;96.10;;;;;;6181279;28;20043;-80
2021/11/30 11:49:04;;;;;;;0.00;0.00;;;3.80;96.40;;;;;;6180634;28;20636;-79
2021/11/30 11:52:18;;;;;;;0.00;0.00;;;3.80;96.40;;;;;;6173343;28;20043;-81
2021/11/30 11:55:22;;;;;;;0.00;0.00;;;3.70;96.20;;;;;;6181547;28;20112;-81
2021/11/30 11:58:30;;;;;;;0.00;0.00;;;3.70;96.20;;;;;;6182057;28;20157;-80
2021/11/30 12:01:33;;;;;;;;;;;3.70;96.30;;;;;;6180957;28;20070;-79
2021/11/30 12:04:40;;;;;;;0.00;0.00;;;3.70;96.20;;;;;;6180864;28;20442;-81
2021/11/30 12:07:57;;;;;;;0.00;0.00;;;3.70;96.30;;;;;;6181770;28;20046;-79
2021/11/30 12:11:01;;;;;;;0.00;0.00;;;3.80;96.40;;;;;;6181527;28;20484;-81
2021/11/30 12:14:10;;;;;;;0.00;0.00;;;3.80;96.50;;;;;;6180590;28;20061;-80
2021/11/30 12:17:16;;;;;;;0.00;0.00;;;3.80;96.40;;;;;;6180329;28;20125;-79
2021/11/30 12:20:18;;;;;;;0.00;0.00;;;3.80;96.40;;;;;;6166362;28;20524;-80
2021/11/30 12:23:32;;;;;;;0.00;0.00;;;3.80;96.40;;;;;;6165213;28;20051;-79
2021/11/30 12:26:37;;;;;;;0.00;0.00;;;3.80;96.40;;;;;;6158057;29;20079;-79
2021/11/30 12:29:40;;;;;;;0.00;0.00;;;3.80;96.40;;;;;;6157220;28;20051;-80
2021/11/30 12:32:43;;;;;;;0.00;0.00;;;3.70;96.10;;;;;;6156592;28;20081;-80
2021/11/30 12:35:55;;;;;;;0.00;0.00;;;3.70;96.40;;;;;;6156823;28;20130;-81
2021/11/30 12:39:00;;;;;;;0.00;0.00;;;3.60;96.40;;;;;;6157248;28;20055;-81
2021/11/30 12:42:02;;;;;;;0.00;0.00;;;3.70;96.50;;;;;;6158594;29;20046;-80
2021/11/30 12:45:05;;;;;;;0.45;0.45;;;3.80;96.50;;;;;;6156600;28;20199;-80
2021/11/30 12:48:15;;;;;;;0.00;0.00;;;3.80;96.40;;;;;;6156599;28;20071;-81
2021/11/30 12:51:26;;;;;;;0.00;0.00;;;3.80;96.40;;;;;;6171444;28;20062;-80
2021/11/30 12:54:29;;;;;;;0.00;0.00;;;3.80;96.30;;;;;;6176919;28;20102;-81
2021/11/30 12:57:42;;;;;;;0.08;0.08;;;3.80;96.40;;;;;;6180862;28;20097;-79
2021/11/30 13:00:43;;;;;;;0.00;0.00;;;3.90;96.40;;;;;;6183777;28;20066;-80
2021/11/30 13:03:48;;;;;;;0.00;0.00;;;3.90;96.20;;;;;;6183015;28;20070;-79
2021/11/30 13:07:05;;;;;;;0.00;0.00;;;3.90;96.20;;;;;;6183125;28;20065;-79
2021/11/30 13:10:17;;;;;;;0.00;0.00;;;3.90;96.20;;;;;;6181918;28;20115;-79
2021/11/30 13:13:23;;;;;;;0.00;0.00;;;4.00;96.40;;;;;;6181123;28;20106;-79
2021/11/30 13:16:24;;;;;;;0.00;0.00;;;4.00;96.30;;;;;;6179252;28;20551;-79
2021/11/30 13:19:32;;;;;;;0.00;0.00;;;4.00;96.10;;;;;;6178429;28;20049;-79
2021/11/30 13:22:38;;;;;;;0.00;0.00;;;4.10;96.10;;;;;;6166460;28;20043;-79
2021/11/30 13:25:41;;;;;;;0.00;0.00;;;4.10;96.00;;;;;;6180407;28;20121;-80
2021/11/30 13:28:43;;;;;;;0.00;0.00;;;4.10;96.20;;;;;;6179339;28;20047;-79
2021/11/30 13:31:46;;;;;;;0.00;0.00;;;4.10;96.00;;;;;;6179658;28;20133;-79
2021/11/30 13:35:08;;;;;;;0.00;0.00;;;4.10;96.00;;;;;;6178335;28;20496;-78
2021/11/30 13:38:13;;;;;;;0.00;0.00;;;4.20;95.70;;;;;;6178929;28;20074;-78
2021/11/30 13:41:17;;;;;;;0.00;0.00;;;4.10;95.60;;;;;;6178831;28;20081;-79
2021/11/30 13:44:20;;;;;;;0.00;0.00;;;4.10;95.70;;;;;;6177278;28;20050;-77
2021/11/30 13:47:21;;;;;;;0.00;0.00;;;4.10;96.00;;;;;;6177986;28;20042;-78
2021/11/30 13:50:28;;;;;;;0.10;0.10;;;4.10;95.80;;;;;;6178348;28;20054;-79
2021/11/30 13:53:33;;;;;;;0.00;0.00;;;4.00;95.60;;;;;;6169713;28;20087;-79
2021/11/30 13:56:40;;;;;;;0.00;0.00;;;4.10;95.60;;;;;;6177921;28;20050;-79
2021/11/30 13:59:45;;;;;;;0.00;0.00;;;4.00;95.50;;;;;;6178089;28;20042;-79
2021/11/30 14:02:48;;;;;;;0.00;0.00;;;4.00;95.60;;;;;;6179259;28;20053;-79
2021/11/30 14:05:51;;;;;;;0.00;0.00;;;4.00;95.60;;;;;;6177508;28;20130;-78
2021/11/30 14:08:55;;;;;;;0.00;0.00;;;4.00;95.60;;;;;;6178404;28;20133;-78
2021/11/30 14:11:58;;;;;;;0.00;0.00;;;4.10;95.80;;;;;;6177935;28;20130;-79
2021/11/30 14:15:02;;;;;;;0.00;0.00;;;4.10;95.60;;;;;;6178944;28;20122;-79
2021/11/30 14:18:06;;;;;;;0.00;0.00;;;4.00;95.50;;;;;;6178166;28;20050;-79
2021/11/30 14:21:15;;;;;;;0.10;0.10;;;4.10;95.60;;;;;;6176234;28;20126;-80
2021/11/30 14:24:17;;;;;;;0.45;0.45;;;4.10;95.60;;;;;;6154269;28;20055;-78
2021/11/30 14:27:20;;;;;;;0.00;0.00;;;4.20;95.60;;;;;;6150696;28;20052;-77
2021/11/30 14:30:27;;;;;;;0.00;0.00;;;4.10;95.50;;;;;;6150513;28;20475;-77
2021/11/30 14:33:29;;;;;;;0.00;0.00;;;4.10;95.60;;;;;;6155766;28;20126;-81
2021/11/30 14:36:32;;;;;;;0.00;0.00;;;4.10;95.50;;;;;;6152778;28;20043;-77
2021/11/30 14:39:34;;;;;;;0.15;0.15;;;4.20;95.50;;;;;;6154399;28;20043;-78
2021/11/30 14:42:39;;;;;;;0.00;0.00;;;4.20;95.40;;;;;;6157883;29;20145;-77
2021/11/30 14:45:46;;;;;;;0.00;0.00;;;4.20;95.40;;;;;;6158288;28;20125;-79
2021/11/30 14:48:48;;;;;;;0.00;0.00;;;4.20;95.30;;;;;;6150916;28;20442;-79
2021/11/30 14:51:51;;;;;;;0.00;0.00;;;4.10;95.30;;;;;;6170597;28;20486;-78
2021/11/30 14:54:53;;;;;;;0.00;0.00;;;4.20;95.50;;;;;;6178740;28;20134;-79
2021/11/30 14:58:09;;;;;;;0.00;0.00;;;4.20;95.40;;;;;;6182940;28;20047;-79
2021/11/30 15:01:14;;;;;;;0.00;0.00;;;4.20;95.30;;;;;;6183099;28;20600;-79
2021/11/30 15:04:16;;;;;;;0.00;0.00;;;4.30;95.30;;;;;;6182181;28;20420;-79
2021/11/30 15:07:19;;;;;;;0.00;0.00;;;4.30;95.10;;;;;;6182394;28;20133;-78
2021/11/30 15:10:35;;;;;;;0.00;0.00;;;4.30;95.20;;;;;;6183333;28;20057;-82
2021/11/30 15:13:43;;;;;;;0.00;0.00;;;4.30;95.30;;;;;;6182557;28;20504;-80
2021/11/30 15:16:46;;;;;;;0.00;0.00;;;4.30;95.30;;;;;;6182716;28;20070;-79
2021/11/30 15:19:49;;;;;;;0.00;0.00;;;4.30;95.20;;;;;;6182319;28;20583;-79
2021/11/30 15:22:52;;;;;;;0.00;0.00;;;4.40;95.30;;;;;;6170703;28;20465;-79
2021/11/30 15:25:58;;;;;;;0.00;0.00;;;4.40;95.10;;;;;;6181338;28;20050;-79
2021/11/30 15:29:00;;;;;;;0.00;0.00;;;4.40;95.20;;;;;;6183035;28;20053;-78
2021/11/30 15:32:05;;;;;;;0.17;0.17;;;4.50;95.10;;;;;;6182742;28;20038;-79
2021/11/30 15:35:12;;;;;;;0.00;0.00;;;4.40;94.90;;;;;;6182688;28;20105;-80
2021/11/30 15:38:15;;;;;;;0.00;0.00;;;4.40;94.90;;;;;;6182806;28;20416;-79
2021/11/30 15:41:17;;;;;;;0.00;0.00;;;4.50;94.90;;;;;;6182533;28;20349;-80
2021/11/30 15:44:20;;;;;;;0.00;0.00;;;4.50;94.90;;;;;;6181490;28;20130;-79
2021/11/30 15:47:24;;;;;;;0.00;0.00;;;4.50;94.80;;;;;;6182497;28;20209;-80
2021/11/30 15:50:25;;;;;;;0.00;0.00;;;4.50;94.70;;;;;;6178656;28;20065;-79
2021/11/30 15:53:28;;;;;;;0.40;0.40;;;4.50;94.90;;;;;;6165421;28;20102;-79
2021/11/30 15:59:52;;;;;;;0.00;0.00;;;4.50;94.90;;;;;;6182788;28;20102;-79
2021/11/30 16:02:55;;;;;;;0.00;0.00;;;4.50;94.80;;;;;;6183656;28;20046;-79
2021/11/30 16:05:57;;;;;;;0.00;0.00;;;4.40;94.80;;;;;;6189774;28;20378;-78
2021/11/30 16:09:01;;;;;;;0.00;0.00;;;4.30;94.80;;;;;;6191159;28;20054;-79
2021/11/30 16:12:03;;;;;;;0.00;0.00;;;4.40;95.00;;;;;;6191545;28;20043;-78
2021/11/30 16:15:06;;;;;;;0.00;0.00;;;4.40;95.10;;;;;;6192295;28;20071;-79